createdAt,value
2019-02-25T00:00:15.913Z,99729.40
2019-02-25T00:02:44.290Z,99733.33
2019-02-25T00:05:12.715Z,99724.52
2019-02-25T00:07:41.082Z,99722.52
2019-02-25T00:10:10.310Z,99717.02
2019-02-25T00:12:38.880Z,99717.94
2019-02-25T00:15:09.318Z,99712.17
2019-02-25T00:17:39.844Z,99711.47
2019-02-25T00:20:14.032Z,99707.28
2019-02-25T00:22:42.307Z,99710.17
2019-02-25T00:25:14.029Z,99716.91
2019-02-25T00:27:42.324Z,99701.67
2019-02-25T00:30:12.670Z,99699.01
2019-02-25T00:32:40.988Z,99704.69
2019-02-25T00:35:09.414Z,99697.88
2019-02-25T00:37:37.728Z,99691.38
2019-02-25T00:40:08.668Z,99655.20
2019-02-25T00:42:36.959Z,99690.08
2019-02-25T00:45:10.536Z,99695.69
2019-02-25T00:47:38.865Z,99698.06
2019-02-25T00:50:12.763Z,99696.00
2019-02-25T00:52:41.051Z,99704.92
2019-02-25T00:55:10.181Z,99693.40
2019-02-25T00:57:38.502Z,99705.63
2019-02-25T01:00:15.470Z,99697.59
2019-02-25T01:02:43.792Z,99701.38
2019-02-25T01:05:12.292Z,99699.29
2019-02-25T01:07:40.775Z,99695.06
2019-02-25T01:10:11.069Z,99688.02
2019-02-25T01:12:39.628Z,99690.95
2019-02-25T01:15:09.532Z,99693.28
2019-02-25T01:17:37.922Z,99681.87
2019-02-25T01:20:11.724Z,99676.17
2019-02-25T01:22:40.778Z,99670.34
2019-02-25T01:25:10.998Z,99668.07
2019-02-25T01:27:39.310Z,99677.13
2019-02-25T01:30:16.234Z,99679.34
2019-02-25T01:32:44.558Z,99666.67
2019-02-25T01:35:13.475Z,99670.78
2019-02-25T01:37:41.860Z,99670.03
2019-02-25T01:40:11.790Z,99668.83
2019-02-25T01:42:40.223Z,99677.89
2019-02-25T01:45:19.375Z,99674.58
2019-02-25T01:47:47.830Z,99675.28
2019-02-25T01:50:16.588Z,99674.27
2019-02-25T01:52:44.871Z,99671.95
2019-02-25T01:55:13.830Z,99677.27
2019-02-25T01:57:42.181Z,99672.66
2019-02-25T02:00:17.939Z,99673.44
2019-02-25T02:02:46.293Z,99676.19
2019-02-25T02:05:14.676Z,99673.25
2019-02-25T02:07:43.272Z,99674.79
2019-02-25T02:10:14.781Z,99675.56
2019-02-25T02:12:43.093Z,99673.31
2019-02-25T02:15:13.935Z,99666.48
2019-02-25T02:17:42.268Z,99668.34
2019-02-25T02:20:15.559Z,99675.44
2019-02-25T02:22:43.875Z,99675.47
2019-02-25T02:25:13.184Z,99672.95
2019-02-25T02:27:41.600Z,99678.71
2019-02-25T02:30:23.678Z,99671.61
2019-02-25T02:32:51.952Z,99670.03
2019-02-25T02:35:20.280Z,99673.15
2019-02-25T02:37:48.696Z,99668.96
2019-02-25T02:40:17.101Z,99667.74
2019-02-25T02:43:00.166Z,99666.80
2019-02-25T02:45:37.972Z,99669.39
2019-02-25T02:48:15.685Z,99665.50
2019-02-25T02:50:44.079Z,99673.34
2019-02-25T02:53:12.515Z,99678.95
2019-02-25T02:55:40.956Z,99673.77
2019-02-25T02:58:09.405Z,99679.39
2019-02-25T03:00:38.472Z,99674.42
2019-02-25T03:03:06.743Z,99681.36
2019-02-25T03:05:35.149Z,99681.86
2019-02-25T03:08:03.437Z,99682.18
2019-02-25T03:10:31.797Z,99680.74
2019-02-25T03:13:00.054Z,99671.27
2019-02-25T03:15:28.661Z,99676.89
2019-02-25T03:17:57.002Z,99672.70
2019-02-25T03:20:25.308Z,99674.80
2019-02-25T03:22:53.630Z,99673.03
2019-02-25T03:25:21.905Z,99688.44
2019-02-25T03:27:50.297Z,99686.28
2019-02-25T03:30:20.166Z,99688.37
2019-02-25T03:32:48.557Z,99693.66
2019-02-25T03:35:16.909Z,99691.84
2019-02-25T03:37:45.204Z,99699.69
2019-02-25T03:40:16.840Z,99695.70
2019-02-25T03:42:45.165Z,99701.84
2019-02-25T03:45:15.408Z,99693.95
2019-02-25T03:47:43.953Z,99691.61
2019-02-25T03:50:12.586Z,99689.53
2019-02-25T03:52:40.986Z,99689.33
2019-02-25T03:55:11.902Z,99692.81
2019-02-25T03:57:40.295Z,99695.46
2019-02-25T04:00:14.321Z,99693.41
2019-02-25T04:02:42.668Z,99704.44
2019-02-25T04:05:11.221Z,99708.09
2019-02-25T04:07:39.679Z,99712.54
2019-02-25T04:10:10.643Z,99711.31
2019-02-25T04:12:39.100Z,99709.42
2019-02-25T04:15:11.171Z,99710.26
2019-02-25T04:17:39.475Z,99700.32
2019-02-25T04:20:13.545Z,99707.81
2019-02-25T04:22:41.902Z,99700.37
2019-02-25T04:25:10.411Z,99702.66
2019-02-25T04:27:38.704Z,99706.78
2019-02-25T04:30:17.626Z,99702.34
2019-02-25T04:32:45.964Z,99702.74
2019-02-25T04:35:14.911Z,99698.81
2019-02-25T04:37:43.605Z,99704.89
2019-02-25T04:40:13.154Z,99700.03
2019-02-25T04:42:41.535Z,99700.05
2019-02-25T04:45:21.104Z,99702.55
2019-02-25T04:47:49.449Z,99702.70
2019-02-25T04:50:17.945Z,99701.91
2019-02-25T04:52:46.308Z,99707.31
2019-02-25T04:55:15.667Z,99695.42
2019-02-25T04:57:44.042Z,99699.54
2019-02-25T05:00:15.134Z,99702.06
2019-02-25T05:02:43.449Z,99708.38
2019-02-25T05:05:11.843Z,99709.63
2019-02-25T05:07:40.120Z,99714.84
2019-02-25T05:10:11.510Z,99721.27
2019-02-25T05:12:41.433Z,99716.89
2019-02-25T05:15:12.347Z,99720.83
2019-02-25T05:17:40.700Z,99723.80
2019-02-25T05:20:09.590Z,99721.10
2019-02-25T05:22:37.883Z,99719.86
2019-02-25T05:25:11.089Z,99728.75
2019-02-25T05:27:39.401Z,99722.64
2019-02-25T05:30:10.928Z,99722.27
2019-02-25T05:32:39.492Z,99722.50
2019-02-25T05:35:09.845Z,99721.72
2019-02-25T05:37:38.200Z,99724.11
2019-02-25T05:40:09.714Z,99711.48
2019-02-25T05:42:38.342Z,99716.39
2019-02-25T05:45:07.380Z,99710.28
2019-02-25T05:47:35.874Z,99711.11
2019-02-25T05:50:07.249Z,99703.27
2019-02-25T05:52:35.757Z,99712.84
2019-02-25T05:55:06.949Z,99711.68
2019-02-25T05:57:35.269Z,99710.75
2019-02-25T06:00:04.884Z,99704.30
2019-02-25T06:02:33.200Z,99714.03
2019-02-25T06:05:01.574Z,99708.66
2019-02-25T06:07:30.077Z,99707.80
2019-02-25T06:09:58.481Z,99716.63
2019-02-25T06:12:26.858Z,99718.50
2019-02-25T06:14:55.170Z,99706.63
2019-02-25T06:17:23.523Z,99715.29
2019-02-25T06:19:52.119Z,99721.09
2019-02-25T06:22:20.569Z,99717.38
2019-02-25T06:24:48.936Z,99722.20
2019-02-25T06:27:17.412Z,99721.23
2019-02-25T06:29:45.785Z,99723.00
2019-02-25T06:32:14.105Z,99720.09
2019-02-25T06:34:42.447Z,99716.07
2019-02-25T06:37:10.878Z,99714.61
2019-02-25T06:39:39.232Z,99721.35
2019-02-25T06:42:07.857Z,99722.09
2019-02-25T06:44:36.312Z,99721.38
2019-02-25T06:47:05.481Z,99733.26
2019-02-25T06:49:33.815Z,99731.30
2019-02-25T06:52:02.185Z,99732.20
2019-02-25T06:54:30.497Z,99737.44
2019-02-25T06:56:58.794Z,99732.92
2019-02-25T06:59:27.173Z,99726.83
2019-02-25T07:01:55.701Z,99722.62
2019-02-25T07:04:31.524Z,99727.65
2019-02-25T07:07:04.607Z,99732.80
2019-02-25T07:09:34.878Z,99728.19
2019-02-25T07:12:05.906Z,99749.21
2019-02-25T07:14:48.001Z,99742.53
2019-02-25T07:17:24.052Z,99744.94
2019-02-25T07:20:09.996Z,99744.46
2019-02-25T07:22:42.622Z,99749.08
2019-02-25T07:25:12.715Z,99734.03
2019-02-25T07:27:45.116Z,99740.75
2019-02-25T07:30:33.538Z,99744.50
2019-02-25T07:33:03.480Z,99746.02
2019-02-25T07:35:39.018Z,99742.88
2019-02-25T07:38:14.716Z,99724.92
2019-02-25T07:41:04.019Z,99739.99
2019-02-25T07:43:39.665Z,99739.99
2019-02-25T07:46:10.055Z,99726.80
2019-02-25T07:48:45.672Z,99730.82
2019-02-25T07:51:15.775Z,99731.86
2019-02-25T07:53:54.976Z,99735.01
2019-02-25T07:56:27.993Z,99731.38
2019-02-25T07:59:07.154Z,99724.31
2019-02-25T08:01:46.392Z,99722.56
2019-02-25T08:04:19.426Z,99720.31
2019-02-25T08:06:55.057Z,99718.41
2019-02-25T08:09:34.127Z,99715.12
2019-02-25T08:12:07.312Z,99712.88
2019-02-25T08:14:46.624Z,99719.16
2019-02-25T08:17:19.627Z,99722.83
2019-02-25T08:19:52.114Z,99712.61
2019-02-25T08:22:22.963Z,99717.52
2019-02-25T08:24:52.977Z,99720.23
2019-02-25T08:27:31.863Z,99709.64
2019-02-25T08:30:27.774Z,99716.88
2019-02-25T08:33:00.705Z,99716.67
2019-02-25T08:36:07.000Z,99704.88
2019-02-25T08:38:56.177Z,99717.05
2019-02-25T08:41:34.993Z,99715.56
2019-02-25T08:44:13.336Z,99714.48
2019-02-25T08:46:43.352Z,99711.56
2019-02-25T08:49:13.362Z,99710.06
2019-02-25T08:51:41.734Z,99704.81
2019-02-25T08:54:10.155Z,99712.56
2019-02-25T08:56:38.615Z,99710.77
2019-02-25T08:59:07.029Z,99707.03
2019-02-25T09:01:35.479Z,99705.37
2019-02-25T09:04:03.811Z,99708.64
2019-02-25T09:06:32.168Z,99710.61
2019-02-25T09:09:00.744Z,99711.67
2019-02-25T09:11:29.251Z,99706.00
2019-02-25T09:13:57.714Z,99707.03
2019-02-25T09:16:26.109Z,99715.19
2019-02-25T09:18:54.561Z,99709.25
2019-02-25T09:21:31.389Z,99704.58
2019-02-25T09:23:52.971Z,99701.81
2019-02-25T09:26:21.302Z,99702.42
2019-02-25T09:28:49.674Z,99701.39
2019-02-25T09:31:17.999Z,99708.51
2019-02-25T09:33:46.328Z,99709.93
2019-02-25T09:36:14.833Z,99706.92
2019-02-25T09:38:43.199Z,99699.05
2019-02-25T09:41:11.609Z,99700.23
2019-02-25T09:43:39.913Z,99700.17
2019-02-25T09:46:10.664Z,99693.61
2019-02-25T09:48:39.169Z,99703.47
2019-02-25T09:51:07.488Z,99703.44
2019-02-25T09:53:35.860Z,99710.75
2019-02-25T09:56:04.518Z,99718.48
2019-02-25T09:58:33.075Z,99716.55
2019-02-25T10:01:01.598Z,99717.25
2019-02-25T10:03:29.899Z,99711.54
2019-02-25T10:05:58.200Z,99714.57
2019-02-25T10:08:26.556Z,99718.45
2019-02-25T10:10:54.860Z,99708.88
2019-02-25T10:13:23.266Z,99709.28
2019-02-25T10:15:51.639Z,99707.66
2019-02-25T10:18:20.101Z,99701.00
2019-02-25T10:20:48.500Z,99703.97
2019-02-25T10:23:16.831Z,99702.70
2019-02-25T10:25:45.228Z,99706.94
2019-02-25T10:28:13.643Z,99706.83
2019-02-25T10:30:41.932Z,99695.05
2019-02-25T10:33:10.287Z,99707.67
2019-02-25T10:35:38.568Z,99708.12
2019-02-25T10:38:06.950Z,99708.07
2019-02-25T10:40:35.316Z,99702.63
2019-02-25T10:43:03.746Z,99701.59
2019-02-25T10:45:32.017Z,99704.17
2019-02-25T10:48:00.805Z,99694.90
2019-02-25T10:50:31.150Z,99703.14
2019-02-25T10:53:03.516Z,99697.01
2019-02-25T10:55:35.384Z,99699.52
2019-02-25T10:58:04.341Z,99705.39
2019-02-25T11:00:32.832Z,99700.71
2019-02-25T11:03:01.337Z,99697.94
2019-02-25T11:05:30.573Z,99693.34
2019-02-25T11:08:00.092Z,99697.55
2019-02-25T11:10:30.138Z,99687.42
2019-02-25T11:12:59.964Z,99685.02
2019-02-25T11:15:29.423Z,99676.56
2019-02-25T11:17:57.849Z,99681.58
2019-02-25T11:20:27.329Z,99672.50
2019-02-25T11:22:56.655Z,99680.76
2019-02-25T11:25:26.278Z,99666.34
2019-02-25T11:27:55.016Z,99667.00
2019-02-25T11:30:23.985Z,99671.33
2019-02-25T11:32:53.938Z,99674.59
2019-02-25T11:35:23.260Z,99668.91
2019-02-25T11:37:52.473Z,99670.09
2019-02-25T11:40:21.826Z,99669.48
2019-02-25T11:42:51.021Z,99666.14
2019-02-25T11:45:21.202Z,99666.23
2019-02-25T11:47:49.599Z,99655.35
2019-02-25T11:50:20.357Z,99656.59
2019-02-25T11:52:48.712Z,99651.02
2019-02-25T11:55:17.373Z,99652.98
2019-02-25T11:57:45.760Z,99638.34
2019-02-25T12:00:19.656Z,99645.94
2019-02-25T12:02:47.953Z,99642.41
2019-02-25T12:05:17.930Z,99642.22
2019-02-25T12:07:46.498Z,99634.43
2019-02-25T12:10:17.713Z,99631.31
2019-02-25T12:12:46.122Z,99640.96
2019-02-25T12:15:22.426Z,99634.68
2019-02-25T12:17:50.871Z,99634.80
2019-02-25T12:20:19.596Z,99623.25
2019-02-25T12:22:48.072Z,99616.26
2019-02-25T12:25:24.026Z,99621.19
2019-02-25T12:27:52.431Z,99610.16
2019-02-25T12:30:23.268Z,99614.16
2019-02-25T12:32:51.594Z,99600.01
2019-02-25T12:35:20.138Z,99612.06
2019-02-25T12:37:49.760Z,99606.60
2019-02-25T12:40:19.073Z,99607.09
2019-02-25T12:42:48.255Z,99608.58
2019-02-25T12:45:17.264Z,99612.05
2019-02-25T12:47:46.288Z,99605.28
2019-02-25T12:50:17.023Z,99599.50
2019-02-25T12:52:46.450Z,99596.20
2019-02-25T12:55:19.295Z,99589.34
2019-02-25T12:57:48.565Z,99587.78
2019-02-25T13:00:22.338Z,99586.77
2019-02-25T13:02:50.911Z,99568.45
2019-02-25T13:05:24.443Z,99567.43
2019-02-25T13:07:53.557Z,99573.81
2019-02-25T13:10:23.050Z,99566.64
2019-02-25T13:12:53.562Z,99556.87
2019-02-25T13:15:24.381Z,99557.17
2019-02-25T13:17:52.858Z,99563.88
2019-02-25T13:20:21.187Z,99554.64
2019-02-25T13:22:49.669Z,99557.42
2019-02-25T13:25:26.732Z,99561.62
2019-02-25T13:27:56.939Z,99555.27
2019-02-25T13:30:25.807Z,99566.14
2019-02-25T13:32:54.127Z,99560.63
2019-02-25T13:35:22.582Z,99548.66
2019-02-25T13:37:51.056Z,99549.28
2019-02-25T13:40:19.517Z,99557.06
2019-02-25T13:42:48.166Z,99548.51
2019-02-25T13:45:21.212Z,99545.34
2019-02-25T13:47:49.588Z,99540.65
2019-02-25T13:50:18.800Z,99536.37
2019-02-25T13:52:48.468Z,99544.84
2019-02-25T13:55:21.787Z,99540.41
2019-02-25T13:57:50.161Z,99543.03
2019-02-25T14:00:21.936Z,99541.28
2019-02-25T14:02:50.489Z,99540.12
2019-02-25T14:05:18.901Z,99533.42
2019-02-25T14:07:47.320Z,99535.02
2019-02-25T14:10:19.239Z,99535.84
2019-02-25T14:12:47.619Z,99542.34
2019-02-25T14:15:25.559Z,99536.39
2019-02-25T14:17:53.867Z,99541.37
2019-02-25T14:20:26.037Z,99532.33
2019-02-25T14:22:54.416Z,99532.48
2019-02-25T14:25:27.387Z,99525.01
2019-02-25T14:27:56.149Z,99525.27
2019-02-25T14:30:26.682Z,99532.72
2019-02-25T14:32:55.870Z,99524.25
2019-02-25T14:35:28.770Z,99517.39
2019-02-25T14:38:02.468Z,99520.34
2019-02-25T14:40:32.061Z,99519.55
2019-02-25T14:42:59.983Z,99512.08
2019-02-25T14:45:31.515Z,99513.83
2019-02-25T14:47:59.907Z,99502.69
2019-02-25T14:50:29.301Z,99496.38
2019-02-25T14:52:57.723Z,99491.94
2019-02-25T14:55:26.379Z,99495.56
2019-02-25T14:57:55.258Z,99492.22
2019-02-25T15:00:31.417Z,99479.78
2019-02-25T15:02:58.793Z,99482.50
2019-02-25T15:05:27.186Z,99478.77
2019-02-25T15:07:55.656Z,99475.63
2019-02-25T15:10:29.115Z,99477.91
2019-02-25T15:12:58.672Z,99480.80
2019-02-25T15:15:24.735Z,99474.47
2019-02-25T15:17:53.178Z,99476.13
2019-02-25T15:20:24.042Z,99477.03
2019-02-25T15:22:53.644Z,99474.98
2019-02-25T15:25:22.471Z,99483.33
2019-02-25T15:27:51.089Z,99475.53
2019-02-25T15:30:22.903Z,99468.01
2019-02-25T15:32:55.536Z,99473.79
2019-02-25T15:35:26.539Z,99462.63
2019-02-25T15:37:55.158Z,99458.14
2019-02-25T15:40:25.094Z,99454.20
2019-02-25T15:43:12.644Z,99455.11
2019-02-25T15:45:42.433Z,99449.88
2019-02-25T15:48:22.985Z,99453.16
2019-02-25T15:50:55.976Z,99456.35
2019-02-25T15:53:25.995Z,99453.41
2019-02-25T15:55:56.921Z,99451.14
2019-02-25T15:58:25.079Z,99451.08
2019-02-25T16:00:53.458Z,99455.30
2019-02-25T16:03:22.139Z,99454.97
2019-02-25T16:05:52.490Z,99453.52
2019-02-25T16:08:21.297Z,99454.89
2019-02-25T16:10:51.734Z,99457.08
2019-02-25T16:13:21.038Z,99452.63
2019-02-25T16:15:49.356Z,99454.34
2019-02-25T16:18:18.091Z,99438.02
2019-02-25T16:20:46.501Z,99452.48
2019-02-25T16:23:14.819Z,99454.09
2019-02-25T16:25:43.693Z,99461.52
2019-02-25T16:28:13.051Z,99463.05
2019-02-25T16:30:42.927Z,99460.31
2019-02-25T16:33:14.324Z,99463.58
2019-02-25T16:35:43.535Z,99466.61
2019-02-25T16:38:12.406Z,99462.06
2019-02-25T16:40:40.815Z,99461.81
2019-02-25T16:43:10.464Z,99463.68
2019-02-25T16:45:41.652Z,99464.98
2019-02-25T16:48:11.554Z,99469.19
2019-02-25T16:50:43.381Z,99473.94
2019-02-25T16:53:10.897Z,99468.95
2019-02-25T16:55:42.787Z,99474.59
2019-02-25T16:58:13.213Z,99472.09
2019-02-25T17:00:41.848Z,99475.67
2019-02-25T17:03:11.200Z,99473.53
2019-02-25T17:05:42.883Z,99480.52
2019-02-25T17:08:12.851Z,99489.85
2019-02-25T17:10:41.393Z,99486.03
2019-02-25T17:13:10.362Z,99489.81
2019-02-25T17:15:39.989Z,99492.00
2019-02-25T17:18:08.875Z,99492.31
2019-02-25T17:20:37.267Z,99491.48
2019-02-25T17:23:09.466Z,99494.38
2019-02-25T17:25:36.856Z,99496.83
2019-02-25T17:28:08.144Z,99500.16
2019-02-25T17:30:37.981Z,99505.16
2019-02-25T17:33:10.013Z,99503.55
2019-02-25T17:35:38.519Z,99509.28
2019-02-25T17:38:06.975Z,99509.55
2019-02-25T17:40:35.362Z,99512.00
2019-02-25T17:43:03.787Z,99521.27
2019-02-25T17:45:34.378Z,99515.58
2019-02-25T17:48:05.436Z,99510.98
2019-02-25T17:50:34.762Z,99512.06
2019-02-25T17:53:03.287Z,99506.09
2019-02-25T17:55:34.469Z,99509.61
2019-02-25T17:58:03.052Z,99518.80
2019-02-25T18:00:41.728Z,99516.09
2019-02-25T18:03:09.508Z,99518.01
2019-02-25T18:05:40.791Z,99513.39
2019-02-25T18:08:12.375Z,99514.45
2019-02-25T18:10:40.772Z,99512.80
2019-02-25T18:13:11.026Z,99513.30
2019-02-25T18:15:39.753Z,99522.48
2019-02-25T18:18:11.683Z,99527.48
2019-02-25T18:20:38.982Z,99525.36
2019-02-25T18:23:07.620Z,99521.04
2019-02-25T18:25:37.665Z,99521.36
2019-02-25T18:28:08.388Z,99524.89
2019-02-25T18:30:36.623Z,99525.55
2019-02-25T18:33:05.468Z,99521.98
2019-02-25T18:35:36.210Z,99526.45
2019-02-25T18:38:05.384Z,99523.75
2019-02-25T18:40:35.847Z,99525.20
2019-02-25T18:43:06.781Z,99524.87
2019-02-25T18:45:37.862Z,99524.87
2019-02-25T18:48:07.124Z,99521.54
2019-02-25T18:50:39.276Z,99528.77
2019-02-25T18:53:07.333Z,99525.41
2019-02-25T18:55:36.749Z,99519.73
2019-02-25T18:58:07.947Z,99519.26
2019-02-25T19:00:40.025Z,99523.88
2019-02-25T19:03:09.348Z,99525.89
2019-02-25T19:05:37.948Z,99528.09
2019-02-25T19:08:16.838Z,99531.74
2019-02-25T19:10:45.536Z,99530.93
2019-02-25T19:13:15.929Z,99538.20
2019-02-25T19:15:43.830Z,99539.14
2019-02-25T19:18:13.226Z,99532.70
2019-02-25T19:20:43.376Z,99533.64
2019-02-25T19:23:13.886Z,99528.20
2019-02-25T19:25:42.831Z,99531.78
2019-02-25T19:28:13.940Z,99539.14
2019-02-25T19:30:42.728Z,99541.50
2019-02-25T19:33:11.693Z,99542.70
2019-02-25T19:35:40.854Z,99535.44
2019-02-25T19:38:12.763Z,99548.59
2019-02-25T19:40:40.843Z,99545.42
2019-02-25T19:43:11.035Z,99541.92
2019-02-25T19:45:40.803Z,99542.33
2019-02-25T19:48:09.970Z,99552.67
2019-02-25T19:51:20.573Z,99553.64
2019-02-25T19:53:53.602Z,99540.20
2019-02-25T19:59:34.665Z,99546.84
2019-02-25T20:05:24.132Z,99547.53
2019-02-25T20:08:13.253Z,99546.09
2019-02-25T20:10:46.600Z,99546.09
2019-02-25T20:13:21.870Z,99533.47
2019-02-25T20:15:51.205Z,99541.63
2019-02-25T20:18:20.659Z,99541.63
2019-02-25T20:20:49.324Z,99541.45
2019-02-25T20:23:20.242Z,99541.34
2019-02-25T20:25:51.018Z,99537.84
2019-02-25T20:28:20.735Z,99537.84
2019-02-25T20:30:51.497Z,99538.39
2019-02-25T20:33:19.928Z,99531.13
2019-02-25T20:35:51.181Z,99533.86
2019-02-25T20:38:18.568Z,99533.86
2019-02-25T20:40:50.806Z,99536.70
2019-02-25T20:43:19.394Z,99543.66
2019-02-25T20:45:48.167Z,99545.86
2019-02-25T20:48:17.694Z,99553.41
2019-02-25T20:50:46.023Z,99556.38
2019-02-25T20:53:14.462Z,99558.02
2019-02-25T20:55:42.937Z,99557.31
2019-02-25T20:58:13.489Z,99557.31
2019-02-25T21:00:42.428Z,99558.37
2019-02-25T21:03:13.979Z,99558.37
2019-02-25T21:05:41.877Z,99552.50
2019-02-25T21:08:12.297Z,99552.50
2019-02-25T21:10:40.502Z,99557.31
2019-02-25T21:13:08.817Z,99556.55
2019-02-25T21:15:38.407Z,99558.39
2019-02-25T21:18:07.827Z,99565.31
2019-02-25T21:20:36.243Z,99561.19
2019-02-25T21:23:05.979Z,99561.19
2019-02-25T21:25:36.780Z,99557.52
2019-02-25T21:28:06.791Z,99554.44
2019-02-25T21:30:39.156Z,99554.44
2019-02-25T21:33:06.044Z,99557.27
2019-02-25T21:35:37.206Z,99563.20
2019-02-25T21:38:04.967Z,99562.24
2019-02-25T21:40:33.304Z,99560.68
2019-02-25T21:43:01.649Z,99560.68
2019-02-25T21:45:32.353Z,99556.63
2019-02-25T21:48:01.876Z,99553.97
2019-02-25T21:50:32.993Z,99559.30
2019-02-25T21:53:00.525Z,99561.24
2019-02-25T21:55:30.988Z,99543.37
2019-02-25T21:58:00.718Z,99543.37
2019-02-25T22:00:31.981Z,99565.16
2019-02-25T22:02:59.175Z,99555.33
2019-02-25T22:05:27.464Z,99559.14
2019-02-25T22:07:57.786Z,99559.14
2019-02-25T22:10:25.855Z,99561.76
2019-02-25T22:12:54.301Z,99560.77
2019-02-25T22:15:22.759Z,99560.77
2019-02-25T22:17:53.297Z,99561.25
2019-02-25T22:20:22.592Z,99558.78
2019-02-25T22:22:54.553Z,99558.78
2019-02-25T22:25:22.724Z,99566.55
2019-02-25T22:27:51.017Z,99562.28
2019-02-25T22:30:19.526Z,99550.87
2019-02-25T22:32:47.910Z,99553.98
2019-02-25T22:35:16.203Z,99557.39
2019-02-25T22:37:49.000Z,99557.15
2019-02-25T22:40:17.184Z,99559.70
2019-02-25T22:42:47.970Z,99560.03
2019-02-25T22:45:18.956Z,99550.45
2019-02-25T22:47:50.536Z,99552.21
2019-02-25T22:50:24.086Z,99560.94
2019-02-25T22:52:58.205Z,99559.59
2019-02-25T22:55:22.730Z,99554.64
2019-02-25T22:57:53.936Z,99555.03
2019-02-25T23:00:43.309Z,99561.54
2019-02-25T23:03:15.213Z,99561.79
2019-02-25T23:05:43.623Z,99561.38
2019-02-25T23:08:13.173Z,99558.45
2019-02-25T23:10:44.465Z,99571.66
2019-02-25T23:13:12.842Z,99565.42
2019-02-25T23:15:43.813Z,99567.22
2019-02-25T23:18:13.885Z,99555.33
2019-02-25T23:20:41.515Z,99555.97
2019-02-25T23:23:10.078Z,99549.80
2019-02-25T23:25:38.459Z,99551.11
2019-02-25T23:28:06.768Z,99557.42
2019-02-25T23:30:39.101Z,99558.61
2019-02-25T23:33:05.185Z,99559.45
2019-02-25T23:35:33.556Z,99559.45
2019-02-25T23:38:01.886Z,99553.67
2019-02-25T23:40:33.293Z,99561.16
2019-02-25T23:43:01.461Z,99556.88
2019-02-25T23:45:30.543Z,99565.68
2019-02-25T23:47:59.718Z,99568.72
2019-02-25T23:50:29.762Z,99567.66
2019-02-25T23:52:59.223Z,99569.41
2019-02-25T23:55:29.500Z,99567.47
2019-02-25T23:57:57.581Z,99571.28
